Hauptseite
METAR-TAF:

METAR-TAF

Flughäfen :

Flughafen Sylt

Westerland, Deutschland

Breite: 54-55N, Länge: 008-21E, Höhe: 16 m

Beobachtung

Neuester Wetterbericht von vor 10 Minuten, um 08:20 UTC
Wind 12 kt aus Südwest
Temperatur 14°C
Luftfeuchtigkeit 82%
Luftdruck 999 hPa
Sichtweite 10 km oder mehr
Aufgelockert bewölkt in der Höhe von 900 ft
Durchbrochene Bewölkung in der Höhe von 4900 ft

METAR: EDXW 240820Z 23012KT 9999 SCT009 BKN049 14/11 Q0999

Zeit: 10:30 (08:30 UTC)

Prognose

Neuester Wetterbericht von vor 15 Stunden und 30 Minuten, um 17:00 UTC
Gültige Prognose vom 23 um 18 UTC bis 23 um 21 UTC
Wind 15 kt aus Südost
Sichtweite 10 km oder mehr
keine Wolken unter 1500 m und keine Kumulonimbus oder Gewitterwolken
Übergehend zu
vom 23 um 18 UTC bis 23 um 20 UTC
Wind 20 kt aus Ost/Südost, Böen bis zu 30 kt

TAF: EDXW 231700Z 2318/2321 13015KT CAVOK BECMG 2318/2320 11020G30KT

Wetterbeobachtungen und Prognosen von mehr als 4000 Flughäfen (METAR und TAF Bericht).

Die verfügbaren Stationen werden durch gelbe und rote Markierungen auf der Karte dargestellt.

Führen Sie die Maus auf sie, um den Namen der Station zu sehen.

Darauf klicken, um die Beobachtung von Wetterbeobachtungen und Prognosen zu sehen.

Um die Karte zu ändern : klicken Sie auf den grünen Tasten mit einem schwarzen Kreuz Zum Vergrößern, auf den grünen Button mit einem Gedankenstrich zu verkleinern, oder auf die grünen Pfeile für benachbarte Karten.


METAR-TAF: